sensor_id;sensor_type;location;lat;lon;timestamp;P1;durP1;ratioP1;P2;durP2;ratioP2
53269;SDS011;39159;45.634;9.420;2024-02-21T00:01:45;110.68;;;52.38;;
53269;SDS011;39159;45.634;9.420;2024-02-21T00:04:11;108.18;;;50.90;;
53269;SDS011;39159;45.634;9.420;2024-02-21T00:06:36;92.97;;;46.92;;
53269;SDS011;39159;45.634;9.420;2024-02-21T00:09:01;96.68;;;46.05;;
53269;SDS011;39159;45.634;9.420;2024-02-21T00:11:27;91.85;;;45.15;;
53269;SDS011;39159;45.634;9.420;2024-02-21T00:13:53;79.00;;;39.88;;
53269;SDS011;39159;45.634;9.420;2024-02-21T00:16:18;82.68;;;42.05;;
53269;SDS011;39159;45.634;9.420;2024-02-21T00:18:44;88.30;;;42.22;;
53269;SDS011;39159;45.634;9.420;2024-02-21T00:21:10;91.93;;;44.38;;
53269;SDS011;39159;45.634;9.420;2024-02-21T00:23:40;96.15;;;44.47;;
53269;SDS011;39159;45.634;9.420;2024-02-21T00:26:05;91.13;;;43.85;;
53269;SDS011;39159;45.634;9.420;2024-02-21T00:28:31;81.95;;;40.30;;
53269;SDS011;39159;45.634;9.420;2024-02-21T00:30:56;81.82;;;40.17;;
53269;SDS011;39159;45.634;9.420;2024-02-21T00:33:21;77.47;;;37.95;;
53269;SDS011;39159;45.634;9.420;2024-02-21T00:35:47;79.03;;;38.42;;
53269;SDS011;39159;45.634;9.420;2024-02-21T00:38:12;71.30;;;35.80;;
53269;SDS011;39159;45.634;9.420;2024-02-21T00:40:38;67.53;;;34.60;;
53269;SDS011;39159;45.634;9.420;2024-02-21T00:43:03;65.35;;;32.55;;
53269;SDS011;39159;45.634;9.420;2024-02-21T00:45:28;66.53;;;34.20;;
53269;SDS011;39159;45.634;9.420;2024-02-21T00:47:54;63.45;;;30.95;;
53269;SDS011;39159;45.634;9.420;2024-02-21T00:50:19;57.03;;;28.25;;
53269;SDS011;39159;45.634;9.420;2024-02-21T00:52:45;54.03;;;27.17;;
53269;SDS011;39159;45.634;9.420;2024-02-21T00:55:10;49.78;;;25.95;;
53269;SDS011;39159;45.634;9.420;2024-02-21T00:57:35;53.13;;;24.80;;
53269;SDS011;39159;45.634;9.420;2024-02-21T01:00:02;48.53;;;24.60;;
53269;SDS011;39159;45.634;9.420;2024-02-21T01:02:28;39.53;;;19.58;;
53269;SDS011;39159;45.634;9.420;2024-02-21T01:04:56;31.80;;;17.90;;
53269;SDS011;39159;45.634;9.420;2024-02-21T01:07:22;28.27;;;14.27;;
53269;SDS011;39159;45.634;9.420;2024-02-21T01:09:47;24.13;;;12.70;;
53269;SDS011;39159;45.634;9.420;2024-02-21T01:12:12;19.52;;;11.23;;
53269;SDS011;39159;45.634;9.420;2024-02-21T01:14:38;19.90;;;10.93;;
53269;SDS011;39159;45.634;9.420;2024-02-21T01:17:03;24.33;;;12.32;;
53269;SDS011;39159;45.634;9.420;2024-02-21T01:19:31;24.75;;;12.13;;
53269;SDS011;39159;45.634;9.420;2024-02-21T01:21:56;22.27;;;11.50;;
53269;SDS011;39159;45.634;9.420;2024-02-21T01:24:21;19.70;;;10.75;;
53269;SDS011;39159;45.634;9.420;2024-02-21T01:26:47;21.83;;;11.60;;
53269;SDS011;39159;45.634;9.420;2024-02-21T01:29:12;21.35;;;11.35;;
53269;SDS011;39159;45.634;9.420;2024-02-21T01:31:37;22.10;;;11.48;;
53269;SDS011;39159;45.634;9.420;2024-02-21T01:34:03;23.88;;;12.88;;
53269;SDS011;39159;45.634;9.420;2024-02-21T01:36:28;23.85;;;12.63;;
53269;SDS011;39159;45.634;9.420;2024-02-21T01:38:53;21.38;;;10.32;;
53269;SDS011;39159;45.634;9.420;2024-02-21T01:41:19;19.75;;;9.63;;
53269;SDS011;39159;45.634;9.420;2024-02-21T01:43:44;16.15;;;9.02;;
53269;SDS011;39159;45.634;9.420;2024-02-21T01:46:10;17.23;;;8.48;;
53269;SDS011;39159;45.634;9.420;2024-02-21T01:48:36;16.17;;;9.70;;
53269;SDS011;39159;45.634;9.420;2024-02-21T01:51:01;15.68;;;8.93;;
53269;SDS011;39159;45.634;9.420;2024-02-21T01:53:29;17.17;;;9.45;;
53269;SDS011;39159;45.634;9.420;2024-02-21T01:55:57;16.98;;;9.20;;
53269;SDS011;39159;45.634;9.420;2024-02-21T01:58:23;17.10;;;8.88;;
53269;SDS011;39159;45.634;9.420;2024-02-21T02:00:49;16.80;;;8.10;;
53269;SDS011;39159;45.634;9.420;2024-02-21T02:03:15;18.08;;;9.13;;
53269;SDS011;39159;45.634;9.420;2024-02-21T02:05:47;18.38;;;8.88;;
53269;SDS011;39159;45.634;9.420;2024-02-21T02:08:17;18.13;;;9.23;;
53269;SDS011;39159;45.634;9.420;2024-02-21T02:10:43;17.65;;;9.38;;
53269;SDS011;39159;45.634;9.420;2024-02-21T02:13:09;19.55;;;9.88;;
53269;SDS011;39159;45.634;9.420;2024-02-21T02:15:38;17.73;;;9.73;;
53269;SDS011;39159;45.634;9.420;2024-02-21T02:18:04;16.52;;;9.13;;
53269;SDS011;39159;45.634;9.420;2024-02-21T02:20:30;20.45;;;10.52;;
53269;SDS011;39159;45.634;9.420;2024-02-21T02:22:55;22.33;;;10.65;;
53269;SDS011;39159;45.634;9.420;2024-02-21T02:25:22;22.80;;;11.23;;
53269;SDS011;39159;45.634;9.420;2024-02-21T02:27:47;20.67;;;11.82;;
53269;SDS011;39159;45.634;9.420;2024-02-21T02:30:13;25.40;;;12.18;;
53269;SDS011;39159;45.634;9.420;2024-02-21T02:32:38;24.05;;;12.40;;
53269;SDS011;39159;45.634;9.420;2024-02-21T02:35:04;30.00;;;13.73;;
53269;SDS011;39159;45.634;9.420;2024-02-21T02:37:29;26.38;;;12.85;;
53269;SDS011;39159;45.634;9.420;2024-02-21T02:39:54;27.17;;;13.38;;
53269;SDS011;39159;45.634;9.420;2024-02-21T02:42:20;26.17;;;12.68;;
53269;SDS011;39159;45.634;9.420;2024-02-21T02:44:45;23.70;;;12.07;;
53269;SDS011;39159;45.634;9.420;2024-02-21T02:47:10;26.50;;;12.50;;
53269;SDS011;39159;45.634;9.420;2024-02-21T02:49:36;17.25;;;9.05;;
53269;SDS011;39159;45.634;9.420;2024-02-21T02:52:01;16.27;;;8.63;;
53269;SDS011;39159;45.634;9.420;2024-02-21T02:54:27;12.48;;;7.20;;
53269;SDS011;39159;45.634;9.420;2024-02-21T02:56:52;15.45;;;7.10;;
53269;SDS011;39159;45.634;9.420;2024-02-21T02:59:18;12.38;;;6.90;;
53269;SDS011;39159;45.634;9.420;2024-02-21T03:01:43;12.10;;;7.15;;
53269;SDS011;39159;45.634;9.420;2024-02-21T03:04:08;15.02;;;7.72;;
53269;SDS011;39159;45.634;9.420;2024-02-21T03:06:34;15.57;;;7.85;;
53269;SDS011;39159;45.634;9.420;2024-02-21T03:09:00;15.82;;;8.40;;
53269;SDS011;39159;45.634;9.420;2024-02-21T03:11:25;14.32;;;7.47;;
53269;SDS011;39159;45.634;9.420;2024-02-21T03:13:54;14.38;;;7.22;;
53269;SDS011;39159;45.634;9.420;2024-02-21T03:16:21;12.20;;;6.30;;
53269;SDS011;39159;45.634;9.420;2024-02-21T03:18:47;14.48;;;7.22;;
53269;SDS011;39159;45.634;9.420;2024-02-21T03:21:12;11.50;;;6.53;;
53269;SDS011;39159;45.634;9.420;2024-02-21T03:23:37;12.60;;;5.85;;
53269;SDS011;39159;45.634;9.420;2024-02-21T03:26:03;9.02;;;4.80;;
53269;SDS011;39159;45.634;9.420;2024-02-21T03:28:28;10.77;;;4.53;;
53269;SDS011;39159;45.634;9.420;2024-02-21T03:30:53;9.65;;;4.55;;
53269;SDS011;39159;45.634;9.420;2024-02-21T03:33:19;6.97;;;3.42;;
53269;SDS011;39159;45.634;9.420;2024-02-21T03:35:45;7.18;;;3.40;;
53269;SDS011;39159;45.634;9.420;2024-02-21T03:38:11;8.10;;;3.83;;
53269;SDS011;39159;45.634;9.420;2024-02-21T03:40:36;7.05;;;3.13;;
53269;SDS011;39159;45.634;9.420;2024-02-21T03:43:01;5.65;;;3.30;;
53269;SDS011;39159;45.634;9.420;2024-02-21T03:45:27;5.07;;;2.55;;
53269;SDS011;39159;45.634;9.420;2024-02-21T03:47:52;5.15;;;2.60;;
53269;SDS011;39159;45.634;9.420;2024-02-21T03:50:18;3.78;;;2.30;;
53269;SDS011;39159;45.634;9.420;2024-02-21T03:52:43;4.15;;;2.35;;
53269;SDS011;39159;45.634;9.420;2024-02-21T03:55:09;4.05;;;2.58;;
53269;SDS011;39159;45.634;9.420;2024-02-21T03:57:34;5.05;;;2.47;;
53269;SDS011;39159;45.634;9.420;2024-02-21T03:59:59;3.88;;;2.40;;
53269;SDS011;39159;45.634;9.420;2024-02-21T04:02:25;4.18;;;2.97;;
53269;SDS011;39159;45.634;9.420;2024-02-21T04:04:50;4.05;;;2.35;;
53269;SDS011;39159;45.634;9.420;2024-02-21T04:07:15;4.82;;;2.30;;
53269;SDS011;39159;45.634;9.420;2024-02-21T04:09:41;6.65;;;2.65;;
53269;SDS011;39159;45.634;9.420;2024-02-21T04:12:07;4.35;;;2.72;;
53269;SDS011;39159;45.634;9.420;2024-02-21T04:14:33;10.05;;;4.78;;
53269;SDS011;39159;45.634;9.420;2024-02-21T04:16:59;10.25;;;4.75;;
53269;SDS011;39159;45.634;9.420;2024-02-21T04:19:25;10.50;;;5.25;;
53269;SDS011;39159;45.634;9.420;2024-02-21T04:21:50;8.98;;;4.38;;
53269;SDS011;39159;45.634;9.420;2024-02-21T04:24:15;8.15;;;3.58;;
53269;SDS011;39159;45.634;9.420;2024-02-21T04:26:41;7.57;;;3.75;;
53269;SDS011;39159;45.634;9.420;2024-02-21T04:29:06;5.97;;;3.53;;
53269;SDS011;39159;45.634;9.420;2024-02-21T04:31:32;8.57;;;3.85;;
53269;SDS011;39159;45.634;9.420;2024-02-21T04:33:58;6.97;;;4.22;;
53269;SDS011;39159;45.634;9.420;2024-02-21T04:36:23;7.20;;;4.15;;
53269;SDS011;39159;45.634;9.420;2024-02-21T04:38:49;6.72;;;3.60;;
53269;SDS011;39159;45.634;9.420;2024-02-21T04:41:15;5.72;;;3.28;;
53269;SDS011;39159;45.634;9.420;2024-02-21T04:43:40;6.13;;;3.28;;
53269;SDS011;39159;45.634;9.420;2024-02-21T04:46:06;6.75;;;3.28;;
53269;SDS011;39159;45.634;9.420;2024-02-21T04:48:31;5.38;;;3.28;;
53269;SDS011;39159;45.634;9.420;2024-02-21T04:50:57;4.75;;;2.72;;
53269;SDS011;39159;45.634;9.420;2024-02-21T04:53:22;10.05;;;3.70;;
53269;SDS011;39159;45.634;9.420;2024-02-21T04:55:47;9.60;;;5.32;;
53269;SDS011;39159;45.634;9.420;2024-02-21T04:58:13;13.52;;;5.20;;
53269;SDS011;39159;45.634;9.420;2024-02-21T05:00:38;10.20;;;4.05;;
53269;SDS011;39159;45.634;9.420;2024-02-21T05:03:04;5.10;;;3.25;;
53269;SDS011;39159;45.634;9.420;2024-02-21T05:05:29;5.53;;;3.47;;
53269;SDS011;39159;45.634;9.420;2024-02-21T05:07:54;8.57;;;4.22;;
53269;SDS011;39159;45.634;9.420;2024-02-21T05:10:20;7.40;;;4.00;;
53269;SDS011;39159;45.634;9.420;2024-02-21T05:12:45;9.73;;;4.18;;
53269;SDS011;39159;45.634;9.420;2024-02-21T05:15:11;6.63;;;4.50;;
53269;SDS011;39159;45.634;9.420;2024-02-21T05:17:36;8.45;;;3.80;;
53269;SDS011;39159;45.634;9.420;2024-02-21T05:20:02;6.97;;;3.50;;
53269;SDS011;39159;45.634;9.420;2024-02-21T05:22:27;5.72;;;2.60;;
53269;SDS011;39159;45.634;9.420;2024-02-21T05:24:53;5.93;;;2.78;;
53269;SDS011;39159;45.634;9.420;2024-02-21T05:27:18;5.50;;;2.60;;
53269;SDS011;39159;45.634;9.420;2024-02-21T05:29:44;5.03;;;2.67;;
53269;SDS011;39159;45.634;9.420;2024-02-21T05:32:09;4.65;;;2.38;;
53269;SDS011;39159;45.634;9.420;2024-02-21T05:34:34;8.73;;;3.28;;
53269;SDS011;39159;45.634;9.420;2024-02-21T05:37:00;8.30;;;3.22;;
53269;SDS011;39159;45.634;9.420;2024-02-21T05:39:25;14.00;;;3.22;;
53269;SDS011;39159;45.634;9.420;2024-02-21T05:41:51;5.75;;;2.97;;
53269;SDS011;39159;45.634;9.420;2024-02-21T05:44:17;11.15;;;3.40;;
53269;SDS011;39159;45.634;9.420;2024-02-21T05:46:43;5.68;;;3.25;;
53269;SDS011;39159;45.634;9.420;2024-02-21T05:49:08;6.97;;;3.20;;
53269;SDS011;39159;45.634;9.420;2024-02-21T05:51:34;9.60;;;3.40;;
53269;SDS011;39159;45.634;9.420;2024-02-21T05:53:59;11.27;;;3.78;;
53269;SDS011;39159;45.634;9.420;2024-02-21T05:56:25;7.65;;;3.95;;
53269;SDS011;39159;45.634;9.420;2024-02-21T05:58:50;9.15;;;4.40;;
53269;SDS011;39159;45.634;9.420;2024-02-21T06:01:16;7.28;;;4.03;;
53269;SDS011;39159;45.634;9.420;2024-02-21T06:03:42;8.88;;;3.63;;
53269;SDS011;39159;45.634;9.420;2024-02-21T06:06:08;7.93;;;4.25;;
53269;SDS011;39159;45.634;9.420;2024-02-21T06:08:33;8.82;;;4.43;;
53269;SDS011;39159;45.634;9.420;2024-02-21T06:10:59;9.25;;;3.72;;
53269;SDS011;39159;45.634;9.420;2024-02-21T06:13:24;7.88;;;4.00;;
53269;SDS011;39159;45.634;9.420;2024-02-21T06:15:50;8.50;;;4.43;;
53269;SDS011;39159;45.634;9.420;2024-02-21T06:18:16;9.02;;;4.68;;
53269;SDS011;39159;45.634;9.420;2024-02-21T06:20:42;10.70;;;4.65;;
53269;SDS011;39159;45.634;9.420;2024-02-21T06:23:08;8.57;;;4.47;;
53269;SDS011;39159;45.634;9.420;2024-02-21T06:25:34;8.65;;;4.47;;
53269;SDS011;39159;45.634;9.420;2024-02-21T06:27:59;7.68;;;4.00;;
53269;SDS011;39159;45.634;9.420;2024-02-21T06:30:25;8.82;;;3.80;;
53269;SDS011;39159;45.634;9.420;2024-02-21T06:32:50;10.57;;;4.78;;
53269;SDS011;39159;45.634;9.420;2024-02-21T06:35:16;14.43;;;4.97;;
53269;SDS011;39159;45.634;9.420;2024-02-21T06:37:42;11.07;;;5.35;;
53269;SDS011;39159;45.634;9.420;2024-02-21T06:40:07;11.30;;;4.70;;
53269;SDS011;39159;45.634;9.420;2024-02-21T06:42:34;9.70;;;4.07;;
53269;SDS011;39159;45.634;9.420;2024-02-21T06:44:59;9.95;;;3.65;;
53269;SDS011;39159;45.634;9.420;2024-02-21T06:47:24;11.52;;;3.67;;
53269;SDS011;39159;45.634;9.420;2024-02-21T06:49:50;8.68;;;3.38;;
53269;SDS011;39159;45.634;9.420;2024-02-21T06:52:19;10.43;;;2.83;;
53269;SDS011;39159;45.634;9.420;2024-02-21T06:54:48;17.05;;;3.70;;
53269;SDS011;39159;45.634;9.420;2024-02-21T06:57:14;6.50;;;2.90;;
53269;SDS011;39159;45.634;9.420;2024-02-21T06:59:40;11.77;;;3.35;;
53269;SDS011;39159;45.634;9.420;2024-02-21T07:02:06;6.50;;;3.42;;
53269;SDS011;39159;45.634;9.420;2024-02-21T07:04:32;7.40;;;3.70;;
53269;SDS011;39159;45.634;9.420;2024-02-21T07:06:57;14.07;;;4.00;;
53269;SDS011;39159;45.634;9.420;2024-02-21T07:09:23;10.35;;;3.85;;
53269;SDS011;39159;45.634;9.420;2024-02-21T07:11:48;7.47;;;4.22;;
53269;SDS011;39159;45.634;9.420;2024-02-21T07:14:14;6.82;;;3.95;;
53269;SDS011;39159;45.634;9.420;2024-02-21T07:16:40;10.07;;;4.05;;
53269;SDS011;39159;45.634;9.420;2024-02-21T07:19:05;8.25;;;4.55;;
53269;SDS011;39159;45.634;9.420;2024-02-21T07:21:31;9.30;;;4.55;;
53269;SDS011;39159;45.634;9.420;2024-02-21T07:23:56;18.70;;;5.25;;
53269;SDS011;39159;45.634;9.420;2024-02-21T07:26:22;10.85;;;5.03;;
53269;SDS011;39159;45.634;9.420;2024-02-21T07:28:47;12.48;;;5.15;;
53269;SDS011;39159;45.634;9.420;2024-02-21T07:31:12;10.45;;;5.30;;
53269;SDS011;39159;45.634;9.420;2024-02-21T07:33:38;9.80;;;5.10;;
53269;SDS011;39159;45.634;9.420;2024-02-21T07:36:10;11.75;;;4.88;;
53269;SDS011;39159;45.634;9.420;2024-02-21T07:38:36;11.07;;;4.88;;
53269;SDS011;39159;45.634;9.420;2024-02-21T07:41:02;12.68;;;6.07;;
53269;SDS011;39159;45.634;9.420;2024-02-21T07:43:29;14.50;;;6.13;;
53269;SDS011;39159;45.634;9.420;2024-02-21T07:45:54;16.50;;;8.15;;
53269;SDS011;39159;45.634;9.420;2024-02-21T07:48:20;12.27;;;6.78;;
53269;SDS011;39159;45.634;9.420;2024-02-21T07:50:49;14.65;;;7.03;;
53269;SDS011;39159;45.634;9.420;2024-02-21T07:53:14;11.57;;;5.93;;
53269;SDS011;39159;45.634;9.420;2024-02-21T07:55:40;8.70;;;5.20;;
53269;SDS011;39159;45.634;9.420;2024-02-21T07:58:05;14.05;;;6.43;;
53269;SDS011;39159;45.634;9.420;2024-02-21T08:00:31;9.30;;;5.13;;
53269;SDS011;39159;45.634;9.420;2024-02-21T08:02:56;10.02;;;5.35;;
53269;SDS011;39159;45.634;9.420;2024-02-21T08:05:22;10.35;;;5.13;;
53269;SDS011;39159;45.634;9.420;2024-02-21T08:07:48;10.10;;;5.68;;
53269;SDS011;39159;45.634;9.420;2024-02-21T08:10:13;12.45;;;6.07;;
53269;SDS011;39159;45.634;9.420;2024-02-21T08:12:40;10.57;;;4.80;;
53269;SDS011;39159;45.634;9.420;2024-02-21T08:15:05;10.70;;;5.07;;
53269;SDS011;39159;45.634;9.420;2024-02-21T08:17:33;13.75;;;5.40;;
53269;SDS011;39159;45.634;9.420;2024-02-21T08:19:59;13.32;;;5.25;;
53269;SDS011;39159;45.634;9.420;2024-02-21T08:22:24;9.88;;;4.78;;
53269;SDS011;39159;45.634;9.420;2024-02-21T08:24:50;9.02;;;4.40;;
53269;SDS011;39159;45.634;9.420;2024-02-21T08:27:15;10.63;;;5.07;;
53269;SDS011;39159;45.634;9.420;2024-02-21T08:29:40;13.77;;;5.55;;
53269;SDS011;39159;45.634;9.420;2024-02-21T08:32:06;8.48;;;5.20;;
53269;SDS011;39159;45.634;9.420;2024-02-21T08:34:31;12.27;;;6.18;;
53269;SDS011;39159;45.634;9.420;2024-02-21T08:36:59;15.15;;;6.13;;
53269;SDS011;39159;45.634;9.420;2024-02-21T08:39:24;9.85;;;6.53;;
53269;SDS011;39159;45.634;9.420;2024-02-21T08:41:50;13.20;;;7.03;;
53269;SDS011;39159;45.634;9.420;2024-02-21T08:44:16;15.57;;;7.32;;
53269;SDS011;39159;45.634;9.420;2024-02-21T08:46:41;17.23;;;8.20;;
53269;SDS011;39159;45.634;9.420;2024-02-21T08:49:07;15.32;;;8.15;;
53269;SDS011;39159;45.634;9.420;2024-02-21T08:51:35;17.83;;;9.15;;
53269;SDS011;39159;45.634;9.420;2024-02-21T08:54:00;17.65;;;9.45;;
53269;SDS011;39159;45.634;9.420;2024-02-21T08:56:26;18.92;;;10.43;;
53269;SDS011;39159;45.634;9.420;2024-02-21T08:58:51;21.95;;;11.20;;
53269;SDS011;39159;45.634;9.420;2024-02-21T09:01:16;20.70;;;11.05;;
53269;SDS011;39159;45.634;9.420;2024-02-21T09:03:42;22.63;;;10.90;;
53269;SDS011;39159;45.634;9.420;2024-02-21T09:06:09;24.75;;;12.75;;
53269;SDS011;39159;45.634;9.420;2024-02-21T09:08:35;24.35;;;13.48;;
53269;SDS011;39159;45.634;9.420;2024-02-21T09:11:00;27.90;;;14.23;;
53269;SDS011;39159;45.634;9.420;2024-02-21T09:13:26;25.60;;;14.15;;
53269;SDS011;39159;45.634;9.420;2024-02-21T09:15:52;25.75;;;13.38;;
53269;SDS011;39159;45.634;9.420;2024-02-21T09:18:17;28.35;;;14.57;;
53269;SDS011;39159;45.634;9.420;2024-02-21T09:20:43;30.13;;;15.50;;
53269;SDS011;39159;45.634;9.420;2024-02-21T09:23:08;30.38;;;16.58;;
53269;SDS011;39159;45.634;9.420;2024-02-21T09:25:34;32.58;;;17.17;;
53269;SDS011;39159;45.634;9.420;2024-02-21T09:28:01;30.77;;;16.10;;
53269;SDS011;39159;45.634;9.420;2024-02-21T09:30:27;29.85;;;16.35;;
53269;SDS011;39159;45.634;9.420;2024-02-21T09:32:52;29.77;;;16.33;;
53269;SDS011;39159;45.634;9.420;2024-02-21T09:35:18;29.15;;;15.55;;
53269;SDS011;39159;45.634;9.420;2024-02-21T09:37:43;31.17;;;16.45;;
53269;SDS011;39159;45.634;9.420;2024-02-21T09:40:09;30.20;;;17.10;;
53269;SDS011;39159;45.634;9.420;2024-02-21T09:45:15;30.27;;;17.80;;
53269;SDS011;39159;45.634;9.420;2024-02-21T09:50:23;32.83;;;19.20;;
53269;SDS011;39159;45.634;9.420;2024-02-21T09:52:50;41.83;;;19.27;;
53269;SDS011;39159;45.634;9.420;2024-02-21T09:55:19;33.97;;;18.88;;
53269;SDS011;39159;45.634;9.420;2024-02-21T09:57:45;32.65;;;18.00;;
53269;SDS011;39159;45.634;9.420;2024-02-21T10:00:10;35.15;;;18.95;;
53269;SDS011;39159;45.634;9.420;2024-02-21T10:02:38;33.42;;;17.50;;
53269;SDS011;39159;45.634;9.420;2024-02-21T10:05:04;32.47;;;18.35;;
53269;SDS011;39159;45.634;9.420;2024-02-21T10:07:33;33.53;;;19.15;;
53269;SDS011;39159;45.634;9.420;2024-02-21T10:10:05;35.83;;;19.98;;
53269;SDS011;39159;45.634;9.420;2024-02-21T10:12:31;35.40;;;19.85;;
53269;SDS011;39159;45.634;9.420;2024-02-21T10:15:03;35.90;;;19.98;;
53269;SDS011;39159;45.634;9.420;2024-02-21T10:17:29;36.95;;;20.98;;
53269;SDS011;39159;45.634;9.420;2024-02-21T10:19:55;41.58;;;23.63;;
53269;SDS011;39159;45.634;9.420;2024-02-21T10:22:20;43.55;;;23.77;;
53269;SDS011;39159;45.634;9.420;2024-02-21T10:24:46;46.35;;;25.73;;
53269;SDS011;39159;45.634;9.420;2024-02-21T10:27:12;46.60;;;25.65;;
53269;SDS011;39159;45.634;9.420;2024-02-21T10:29:37;47.58;;;26.77;;
53269;SDS011;39159;45.634;9.420;2024-02-21T10:32:07;47.33;;;26.45;;
53269;SDS011;39159;45.634;9.420;2024-02-21T10:34:34;41.22;;;21.88;;
53269;SDS011;39159;45.634;9.420;2024-02-21T10:37:03;40.95;;;22.83;;
53269;SDS011;39159;45.634;9.420;2024-02-21T10:39:33;38.92;;;22.33;;
53269;SDS011;39159;45.634;9.420;2024-02-21T10:42:00;39.53;;;22.60;;
53269;SDS011;39159;45.634;9.420;2024-02-21T10:44:30;44.17;;;25.00;;
53269;SDS011;39159;45.634;9.420;2024-02-21T10:46:57;45.38;;;25.38;;
53269;SDS011;39159;45.634;9.420;2024-02-21T10:49:23;44.45;;;24.55;;
53269;SDS011;39159;45.634;9.420;2024-02-21T10:52:40;44.50;;;25.17;;
53269;SDS011;39159;45.634;9.420;2024-02-21T10:55:09;46.15;;;25.05;;
53269;SDS011;39159;45.634;9.420;2024-02-21T10:57:39;45.42;;;25.35;;
53269;SDS011;39159;45.634;9.420;2024-02-21T11:00:05;45.72;;;26.25;;
53269;SDS011;39159;45.634;9.420;2024-02-21T11:02:33;48.80;;;29.40;;
53269;SDS011;39159;45.634;9.420;2024-02-21T11:04:59;47.33;;;27.25;;
53269;SDS011;39159;45.634;9.420;2024-02-21T11:07:26;44.67;;;26.02;;
53269;SDS011;39159;45.634;9.420;2024-02-21T11:09:52;37.67;;;24.08;;
53269;SDS011;39159;45.634;9.420;2024-02-21T11:12:20;42.53;;;24.58;;
53269;SDS011;39159;45.634;9.420;2024-02-21T11:14:46;40.85;;;23.55;;
53269;SDS011;39159;45.634;9.420;2024-02-21T11:17:16;38.97;;;24.00;;
53269;SDS011;39159;45.634;9.420;2024-02-21T11:19:42;45.85;;;24.88;;
53269;SDS011;39159;45.634;9.420;2024-02-21T11:22:14;41.25;;;23.85;;
53269;SDS011;39159;45.634;9.420;2024-02-21T11:24:41;41.67;;;23.95;;
53269;SDS011;39159;45.634;9.420;2024-02-21T11:32:08;43.53;;;24.95;;
53269;SDS011;39159;45.634;9.420;2024-02-21T11:34:34;40.33;;;25.58;;
53269;SDS011;39159;45.634;9.420;2024-02-21T11:37:00;45.72;;;26.20;;
53269;SDS011;39159;45.634;9.420;2024-02-21T11:39:26;43.45;;;25.20;;
53269;SDS011;39159;45.634;9.420;2024-02-21T11:42:01;41.97;;;26.05;;
53269;SDS011;39159;45.634;9.420;2024-02-21T11:44:32;40.00;;;25.70;;
53269;SDS011;39159;45.634;9.420;2024-02-21T11:46:59;42.78;;;26.30;;
53269;SDS011;39159;45.634;9.420;2024-02-21T11:49:25;46.45;;;26.33;;
53269;SDS011;39159;45.634;9.420;2024-02-21T11:52:01;46.28;;;28.23;;
53269;SDS011;39159;45.634;9.420;2024-02-21T11:54:29;42.78;;;26.30;;
53269;SDS011;39159;45.634;9.420;2024-02-21T11:56:55;46.60;;;27.63;;
53269;SDS011;39159;45.634;9.420;2024-02-21T11:59:20;47.00;;;27.40;;
53269;SDS011;39159;45.634;9.420;2024-02-21T12:01:46;42.55;;;26.73;;
53269;SDS011;39159;45.634;9.420;2024-02-21T12:04:12;45.60;;;28.25;;
53269;SDS011;39159;45.634;9.420;2024-02-21T12:06:38;44.92;;;26.55;;
53269;SDS011;39159;45.634;9.420;2024-02-21T12:09:04;42.47;;;26.00;;
53269;SDS011;39159;45.634;9.420;2024-02-21T12:11:34;52.28;;;28.48;;
53269;SDS011;39159;45.634;9.420;2024-02-21T12:14:02;45.05;;;26.92;;
53269;SDS011;39159;45.634;9.420;2024-02-21T12:16:29;46.97;;;27.17;;
53269;SDS011;39159;45.634;9.420;2024-02-21T12:18:58;41.00;;;25.27;;
53269;SDS011;39159;45.634;9.420;2024-02-21T12:21:33;44.70;;;28.10;;
53269;SDS011;39159;45.634;9.420;2024-02-21T12:24:15;43.25;;;26.42;;
53269;SDS011;39159;45.634;9.420;2024-02-21T12:26:45;48.45;;;28.85;;
53269;SDS011;39159;45.634;9.420;2024-02-21T12:29:11;46.90;;;27.35;;
53269;SDS011;39159;45.634;9.420;2024-02-21T12:31:37;45.10;;;26.60;;
53269;SDS011;39159;45.634;9.420;2024-02-21T12:34:03;47.65;;;29.38;;
53269;SDS011;39159;45.634;9.420;2024-02-21T12:36:29;50.53;;;29.90;;
53269;SDS011;39159;45.634;9.420;2024-02-21T12:38:55;48.05;;;29.27;;
53269;SDS011;39159;45.634;9.420;2024-02-21T12:41:20;49.65;;;29.75;;
53269;SDS011;39159;45.634;9.420;2024-02-21T12:43:46;56.03;;;29.92;;
53269;SDS011;39159;45.634;9.420;2024-02-21T12:46:12;44.38;;;27.75;;
53269;SDS011;39159;45.634;9.420;2024-02-21T12:48:37;46.38;;;29.80;;
53269;SDS011;39159;45.634;9.420;2024-02-21T12:51:03;47.25;;;29.55;;
53269;SDS011;39159;45.634;9.420;2024-02-21T12:53:29;50.83;;;30.00;;
53269;SDS011;39159;45.634;9.420;2024-02-21T12:55:55;48.47;;;30.73;;
53269;SDS011;39159;45.634;9.420;2024-02-21T12:58:21;48.90;;;30.65;;
53269;SDS011;39159;45.634;9.420;2024-02-21T13:00:47;47.42;;;31.02;;
53269;SDS011;39159;45.634;9.420;2024-02-21T13:03:13;51.53;;;32.47;;
53269;SDS011;39159;45.634;9.420;2024-02-21T13:05:39;53.95;;;32.00;;
53269;SDS011;39159;45.634;9.420;2024-02-21T13:08:08;54.42;;;32.55;;
53269;SDS011;39159;45.634;9.420;2024-02-21T13:10:34;51.53;;;31.90;;
53269;SDS011;39159;45.634;9.420;2024-02-21T13:13:00;54.17;;;32.95;;
53269;SDS011;39159;45.634;9.420;2024-02-21T13:15:26;55.33;;;32.65;;
53269;SDS011;39159;45.634;9.420;2024-02-21T13:17:53;51.70;;;33.15;;
53269;SDS011;39159;45.634;9.420;2024-02-21T13:20:19;56.88;;;34.08;;
53269;SDS011;39159;45.634;9.420;2024-02-21T13:22:44;49.78;;;31.73;;
53269;SDS011;39159;45.634;9.420;2024-02-21T13:25:10;56.40;;;33.53;;
53269;SDS011;39159;45.634;9.420;2024-02-21T13:27:35;52.10;;;33.75;;
53269;SDS011;39159;45.634;9.420;2024-02-21T13:30:01;49.70;;;32.13;;
53269;SDS011;39159;45.634;9.420;2024-02-21T13:32:30;49.25;;;32.83;;
53269;SDS011;39159;45.634;9.420;2024-02-21T13:34:56;51.97;;;33.25;;
53269;SDS011;39159;45.634;9.420;2024-02-21T13:37:24;51.45;;;32.13;;
53269;SDS011;39159;45.634;9.420;2024-02-21T13:39:50;51.00;;;32.70;;
53269;SDS011;39159;45.634;9.420;2024-02-21T13:42:16;50.20;;;30.80;;
53269;SDS011;39159;45.634;9.420;2024-02-21T13:44:42;49.13;;;30.92;;
53269;SDS011;39159;45.634;9.420;2024-02-21T13:47:08;54.65;;;31.50;;
53269;SDS011;39159;45.634;9.420;2024-02-21T13:49:34;47.88;;;29.45;;
53269;SDS011;39159;45.634;9.420;2024-02-21T13:52:00;50.75;;;31.38;;
53269;SDS011;39159;45.634;9.420;2024-02-21T13:54:26;51.88;;;29.13;;
53269;SDS011;39159;45.634;9.420;2024-02-21T13:56:51;52.08;;;31.60;;
53269;SDS011;39159;45.634;9.420;2024-02-21T13:59:16;54.85;;;33.97;;
53269;SDS011;39159;45.634;9.420;2024-02-21T14:01:43;51.25;;;30.83;;
53269;SDS011;39159;45.634;9.420;2024-02-21T14:04:08;50.03;;;30.13;;
53269;SDS011;39159;45.634;9.420;2024-02-21T14:06:33;53.75;;;32.80;;
53269;SDS011;39159;45.634;9.420;2024-02-21T14:08:59;51.70;;;31.33;;
53269;SDS011;39159;45.634;9.420;2024-02-21T14:11:24;55.13;;;31.52;;
53269;SDS011;39159;45.634;9.420;2024-02-21T14:13:51;56.45;;;34.53;;
53269;SDS011;39159;45.634;9.420;2024-02-21T14:16:17;57.30;;;35.78;;
53269;SDS011;39159;45.634;9.420;2024-02-21T14:18:42;59.10;;;36.45;;
53269;SDS011;39159;45.634;9.420;2024-02-21T14:21:08;57.47;;;35.95;;
53269;SDS011;39159;45.634;9.420;2024-02-21T14:23:37;56.58;;;33.55;;
53269;SDS011;39159;45.634;9.420;2024-02-21T14:26:03;59.00;;;34.50;;
53269;SDS011;39159;45.634;9.420;2024-02-21T14:28:29;57.75;;;35.55;;
53269;SDS011;39159;45.634;9.420;2024-02-21T14:30:55;59.45;;;34.13;;
53269;SDS011;39159;45.634;9.420;2024-02-21T14:33:22;54.05;;;33.60;;
53269;SDS011;39159;45.634;9.420;2024-02-21T14:35:51;55.05;;;34.33;;